Trail des deux baies (D2B) 2019

Epreuve sélectionnée:


Marathon des plages - Résultats Scratch

Filtre:

Partants Général Top 5



Recherche:

N° dossard
Nom
Club
Marathon des plages - Classement arrivée
Clt Athlète Nat. Club Temps Sexe Cat Mi-course
3 2064 LALART Jean-baptiste 03:33:43 M (3e) Senior (3e) 01:57:34 (7e) Partagez votre performance
4 2276 MUSELET Nicolas 03:35:30 M (4e) Senior (4e) 01:57:32 (6e) Partagez votre performance
7 2294 DAMBRUNE Julien 03:41:42 M (7e) Senior (7e) 01:59:50 (11e) Partagez votre performance
12 2056 DELATTRE Julien 03:55:33 M (12e) Senior (8e) 01:58:49 (8e) Partagez votre performance
16 2113 DANAPPE Benjamin 04:00:45 M (16e) Senior (11e) 02:03:14 (18e) Partagez votre performance
17 2185 VASSEUR Dimitri 04:01:22 M (17e) Master 1 (4e) 02:06:20 (22e) Partagez votre performance
22 2253 DEBADIER Philippe 04:03:08 M (22e) Master 1 (7e) 02:05:14 (21e) Partagez votre performance
25 2241 DEBUCQUOI Christophe 04:06:34 M (25e) Senior (16e) 02:07:30 (25e) Partagez votre performance
27 2335 BORDET Dominique 04:08:22 M (26e) Master 2 (3e) 02:09:48 (33e) Partagez votre performance
32 2323 HANQUEZ Cédric 04:11:45 M (31e) Senior (20e) 02:10:04 (35e) Partagez votre performance
38 2280 BOUZIDI Messaoud 04:16:16 M (37e) Master 1 (10e) 02:03:27 (20e) Partagez votre performance
39 2415 LEBLACHER Eric 04:17:27 M (38e) Master 1 (11e) 01:57:06 (5e) Partagez votre performance
42 2377 SAUVAGE Valérie 04:21:54 F (2e) Master 1 (1e) 02:15:41 (54e) Partagez votre performance
45 2307 LAVOYE Alex 04:24:15 M (43e) Master 2 (5e) 02:14:03 (48e) Partagez votre performance
51 2311 LEGIEDA Guillaume 04:27:58 M (48e) Senior (29e) 02:16:51 (63e) Partagez votre performance
52 2167 LETAILLE Cedric 04:28:32 M (49e) Master 1 (14e) 02:26:19 (112e) Partagez votre performance
56 2053 MARTINS BAIRROS Thomas 04:29:49 M (53e) Senior (30e) 02:10:32 (36e) Partagez votre performance
57 2372 BELLEZZA Richard 04:29:55 M (54e) Master 1 (16e) 02:13:00 (45e) Partagez votre performance
61 2094 HOLLE Lionel 04:32:13 M (58e) Master 1 (17e) 02:17:04 (64e) Partagez votre performance
66 2194 OLEJNICZAK Jose 04:34:36 M (63e) Master 2 (12e) 02:26:11 (110e) Partagez votre performance
71 2252 DUVAL Kévin 04:36:24 M (68e) Senior (35e) 02:32:27 (160e) Partagez votre performance
72 2134 DEBUYZER Arnaud 04:36:31 M (69e) Master 1 (21e) 02:25:42 (107e) Partagez votre performance
73 2148 FLOURY Grégory 04:36:33 M (70e) Master 1 (22e) 02:25:39 (105e) Partagez votre performance
75 2027 MAISON Hugues 04:37:16 M (72e) Master 2 (14e) 02:25:39 (104e) Partagez votre performance
80 2409 LAMOUR Pascal 04:38:40 M (77e) Master 2 (15e) 02:23:21 (90e) Partagez votre performance
81 2385 LEFLON Quentin 04:38:44 M (78e) Senior (36e) 02:13:17 (46e) Partagez votre performance
82 2296 BRUNEAU Alexandre 04:39:21 M (79e) Senior (37e) 02:28:39 (130e) Partagez votre performance
83 2020 BELLYNCK Julien 04:40:06 M (80e) Senior (38e) 02:23:17 (89e) Partagez votre performance
85 2333 BOUCHARD-GONZALEZ Renaud 04:40:33 M (82e) Master 1 (27e) 02:18:45 (67e) Partagez votre performance
87 2075 SINGEOT Philippe 04:42:07 M (84e) Master 1 (28e) 02:20:55 (80e) Partagez votre performance
89 2193 MENUGE Pierre 04:42:34 M (86e) Senior (41e) 02:22:49 (87e) Partagez votre performance
93 2147 LANVIN Pierre 04:42:46 M (90e) Senior (42e) 02:25:34 (101e) Partagez votre performance
94 2141 FRYDE Xavier 04:43:09 M (91e) Master 2 (17e) 02:29:19 (134e) Partagez votre performance
95 2088 DEMARET Gregory 04:43:10 M (92e) Master 1 (32e) 02:22:12 (84e) Partagez votre performance
103 2139 BLANC Manuel 04:44:23 M (100e) Senior (44e) 02:16:33 (58e) Partagez votre performance
107 2361 BELLETRE Nicolas 04:45:30 M (104e) Senior (47e) 02:13:46 (47e) Partagez votre performance
109 2231 WANTE Guillaume 04:45:54 M (106e) Master 1 (38e) 02:24:49 (96e) Partagez votre performance
111 2136 CICZORA Yann 04:46:05 M (107e) Master 1 (39e) 02:27:58 (121e) Partagez votre performance
112 2266 LORCHNER Guillaume 04:46:07 M (108e) Senior (48e) 02:28:01 (122e) Partagez votre performance
113 2398 TANT Ludovic 04:46:10 M (109e) Master 1 (40e) 02:32:47 (162e) Partagez votre performance
117 2281 MAGNIER Tony 04:46:48 M (112e) Senior (49e) 02:19:25 (75e) Partagez votre performance
118 2304 PAKULA Frederic 04:46:49 M (113e) Master 2 (22e) 02:38:42 (218e) Partagez votre performance
121 2346 MALBRANQUE Philippe 04:47:04 M (116e) Master 3 (2e) 02:32:08 (157e) Partagez votre performance
126 2163 BAHEUX Jean michel 04:51:34 M (121e) Master 3 (3e) 02:31:17 (147e) Partagez votre performance
127 2161 BACRO Gilles-yann 04:51:51 M (122e) Senior (52e) 02:22:12 (83e) Partagez votre performance
129 2189 SALINGUE Loic 04:52:41 M (124e) Master 1 (44e) 02:16:35 (60e) Partagez votre performance
135 2213 COSSON Benoit 04:53:32 M (129e) Master 1 (48e) 02:28:58 (131e) Partagez votre performance
138 2407 DIEFFENBACH Martial 04:53:49 M (132e) Master 1 (50e) 02:40:41 (241e) Partagez votre performance
144 2293 BERNARD Christophe 04:54:51 M (138e) Master 1 (53e) 02:30:50 (144e) Partagez votre performance
145 2068 DEBARGE Bruno 04:55:11 M (139e) Master 2 (28e) 02:29:31 (136e) Partagez votre performance
147 2400 ROZENTHAL Jean 04:55:37 M (141e) Master 2 (30e) 02:40:37 (238e) Partagez votre performance
149 2199 MARIÉ Quentin 04:56:06 M (143e) Senior (54e) 02:28:19 (127e) Partagez votre performance
150 2263 LEGRAND Frederic 04:56:37 M (144e) Master 1 (55e) 02:28:36 (129e) Partagez votre performance
151 2041 ANDRÉ Cédric 04:56:47 M (145e) Senior (55e) 02:41:08 (245e) Partagez votre performance
152 2009 FLAMENT Maurice 04:57:25 M (146e) Master 1 (56e) 02:29:29 (135e) Partagez votre performance
159 2238 JOUBERT-GAUTHIER Sebastien 04:58:25 M (153e) Master 1 (60e) 02:28:14 (125e) Partagez votre performance
160 2239 DARIOSECQ Bruce 04:58:26 M (154e) Master 1 (61e) 02:28:17 (126e) Partagez votre performance
161 2176 LEFEBVRE Maxime 04:58:40 M (155e) Senior (58e) 02:33:02 (165e) Partagez votre performance
164 2044 FLAJOLLET Didier 04:59:18 M (158e) Master 1 (62e) 02:26:10 (109e) Partagez votre performance
167 2308 TISON Nicolas 04:59:40 M (161e) Senior (61e) 02:30:50 (145e) Partagez votre performance
168 2031 DELVAL Alexandre 04:59:55 M (162e) Senior (62e) 02:35:45 (192e) Partagez votre performance
169 2055 FRANCOIS Pierre-antoine 04:59:56 M (163e) Senior (63e) 02:24:28 (93e) Partagez votre performance
171 2082 LIERMANN Christophe 05:00:34 M (165e) Master 1 (64e) 02:32:56 (164e) Partagez votre performance
174 2084 DUFLOS Henry louis 05:01:39 M (168e) Master 2 (35e) 02:38:03 (213e) Partagez votre performance
178 2219 BROCHARD Laurent 05:02:19 M (172e) Master 2 (37e)